createdAt,value
2018-11-01T00:02:24.153Z,8.50
2018-11-01T00:04:52.800Z,15.60
2018-11-01T00:07:22.250Z,10.80
2018-11-01T00:09:50.891Z,17.67
2018-11-01T00:12:19.634Z,12.33
2018-11-01T00:14:48.362Z,10.50
2018-11-01T00:17:17.098Z,5.33
2018-11-01T00:19:45.638Z,7.93
2018-11-01T00:22:14.101Z,6.57
2018-11-01T00:24:42.528Z,7.47
2018-11-01T00:27:11.170Z,9.70
2018-11-01T00:29:39.689Z,5.57
2018-11-01T00:32:08.340Z,5.17
2018-11-01T00:34:37.067Z,5.10
2018-11-01T00:37:05.682Z,4.77
2018-11-01T00:39:34.127Z,9.27
2018-11-01T00:42:02.565Z,3.83
2018-11-01T00:44:31.014Z,7.23
2018-11-01T00:46:59.656Z,4.30
2018-11-01T00:49:28.390Z,3.70
2018-11-01T00:51:57.010Z,4.17
2018-11-01T00:54:25.468Z,3.73
2018-11-01T00:56:54.107Z,4.17
2018-11-01T00:59:22.918Z,3.62
2018-11-01T01:01:52.358Z,6.53
2018-11-01T01:04:20.999Z,5.33
2018-11-01T01:06:49.525Z,8.03
2018-11-01T01:09:18.171Z,4.87
2018-11-01T01:11:46.805Z,4.27
2018-11-01T01:14:15.254Z,5.73
2018-11-01T01:16:43.994Z,4.27
2018-11-01T01:19:12.735Z,3.10
2018-11-01T01:21:41.463Z,3.10
2018-11-01T01:24:10.103Z,4.70
2018-11-01T01:26:38.729Z,4.70
2018-11-01T01:29:07.453Z,9.23
2018-11-01T01:31:35.991Z,9.80
2018-11-01T01:34:04.639Z,4.83
2018-11-01T01:36:33.367Z,5.40
2018-11-01T01:39:01.921Z,3.37
2018-11-01T01:41:30.562Z,5.40
2018-11-01T01:43:59.290Z,7.47
2018-11-01T01:46:28.014Z,3.63
2018-11-01T01:48:56.757Z,3.97
2018-11-01T01:51:25.280Z,6.33
2018-11-01T01:53:53.919Z,5.87
2018-11-01T01:56:23.117Z,3.70
2018-11-01T01:58:51.762Z,5.57
2018-11-01T02:01:21.050Z,5.77
2018-11-01T02:03:49.493Z,4.73
2018-11-01T02:06:17.935Z,6.53
2018-11-01T02:08:46.669Z,3.10
2018-11-01T02:11:15.404Z,6.37
2018-11-01T02:13:44.958Z,3.90
2018-11-01T02:16:15.125Z,4.20
2018-11-01T02:18:43.778Z,4.20
2018-11-01T02:21:12.557Z,4.43
2018-11-01T02:23:41.121Z,4.20
2018-11-01T02:26:09.685Z,3.80
2018-11-01T02:28:38.334Z,4.90
2018-11-01T02:31:07.103Z,4.00
2018-11-01T02:33:35.646Z,2.93
2018-11-01T02:36:04.466Z,2.97
2018-11-01T02:38:33.349Z,3.77
2018-11-01T02:41:01.781Z,4.20
2018-11-01T02:43:30.438Z,7.43
2018-11-01T02:46:00.497Z,4.63
2018-11-01T02:48:29.339Z,6.03
2018-11-01T02:50:58.069Z,7.47
2018-11-01T02:53:26.665Z,8.50
2018-11-01T02:55:55.379Z,6.63
2018-11-01T02:58:24.026Z,7.53
2018-11-01T03:00:52.470Z,4.37
2018-11-01T03:03:21.118Z,6.70
2018-11-01T03:05:49.853Z,4.70
2018-11-01T03:08:18.589Z,9.03
2018-11-01T03:10:47.120Z,4.57
2018-11-01T03:13:15.793Z,7.93
2018-11-01T03:15:44.536Z,8.33
2018-11-01T03:18:13.270Z,10.33
2018-11-01T03:20:42.006Z,5.23
2018-11-01T03:23:10.738Z,5.17
2018-11-01T03:25:39.481Z,5.47
2018-11-01T03:28:08.250Z,4.47
2018-11-01T03:30:36.990Z,6.57
2018-11-01T03:33:05.518Z,3.93
2018-11-01T03:35:34.200Z,3.67
2018-11-01T03:38:02.844Z,5.80
2018-11-01T03:40:31.438Z,2.60
2018-11-01T03:43:00.178Z,3.00
2018-11-01T03:45:28.727Z,6.87
2018-11-01T03:47:57.371Z,5.00
2018-11-01T03:50:26.127Z,10.87
2018-11-01T03:52:55.070Z,4.30
2018-11-01T03:55:24.516Z,7.33
2018-11-01T03:57:53.154Z,3.93
2018-11-01T04:00:21.894Z,4.80
2018-11-01T04:02:50.623Z,5.47
2018-11-01T04:05:19.359Z,4.70
2018-11-01T04:07:48.090Z,5.80
2018-11-01T04:10:16.837Z,11.70
2018-11-01T04:12:45.373Z,7.23
2018-11-01T04:15:14.682Z,4.20
2018-11-01T04:17:43.402Z,6.50
2018-11-01T04:20:13.081Z,7.53
2018-11-01T04:22:42.184Z,5.57
2018-11-01T04:25:10.864Z,5.63
2018-11-01T04:27:39.546Z,5.70
2018-11-01T04:30:08.695Z,9.67
2018-11-01T04:32:37.431Z,14.23
2018-11-01T04:35:06.553Z,34.00
2018-11-01T04:37:35.059Z,9.43
2018-11-01T04:40:03.676Z,13.57
2018-11-01T04:42:32.282Z,5.60
2018-11-01T04:45:00.940Z,5.10
2018-11-01T04:47:29.693Z,5.47
2018-11-01T04:49:58.308Z,12.63
2018-11-01T04:52:27.010Z,19.60
2018-11-01T04:54:55.724Z,11.43
2018-11-01T04:57:25.543Z,7.45
2018-11-01T04:59:54.954Z,11.93
2018-11-01T05:02:23.574Z,12.43
2018-11-01T05:04:52.304Z,10.83
2018-11-01T05:07:20.898Z,11.73
2018-11-01T05:09:49.521Z,13.37
2018-11-01T05:12:18.266Z,15.47
2018-11-01T05:14:46.965Z,7.10
2018-11-01T05:17:15.663Z,7.00
2018-11-01T05:19:44.366Z,7.47
2018-11-01T05:22:12.885Z,8.17
2018-11-01T05:24:41.323Z,9.50
2018-11-01T05:27:09.685Z,9.03
2018-11-01T05:29:38.184Z,7.93
2018-11-01T05:32:06.550Z,9.10
2018-11-01T05:34:35.062Z,9.30
2018-11-01T05:37:03.461Z,9.70
2018-11-01T05:39:31.949Z,7.23
2018-11-01T05:42:00.557Z,7.73
2018-11-01T05:44:29.250Z,3.73
2018-11-01T05:46:58.055Z,7.67
2018-11-01T05:49:26.886Z,9.20
2018-11-01T05:51:56.390Z,4.73
2018-11-01T05:54:24.996Z,5.17
2018-11-01T05:56:53.705Z,7.63
2018-11-01T05:59:22.204Z,8.20
2018-11-01T06:01:52.986Z,7.70
2018-11-01T06:04:21.556Z,7.17
2018-11-01T06:06:49.969Z,10.00
2018-11-01T06:09:31.738Z,9.13
2018-11-01T06:12:00.747Z,14.73
2018-11-01T06:14:29.434Z,7.63
2018-11-01T06:16:58.225Z,6.97
2018-11-01T06:19:26.898Z,6.40
2018-11-01T06:21:55.602Z,7.93
2018-11-01T06:24:24.092Z,7.70
2018-11-01T06:26:52.701Z,7.23
2018-11-01T06:29:21.396Z,11.63
2018-11-01T06:31:50.150Z,9.07
2018-11-01T06:34:22.293Z,8.30
2018-11-01T06:36:50.749Z,6.67
2018-11-01T06:39:20.621Z,5.17
2018-11-01T06:41:50.380Z,4.63
2018-11-01T06:44:19.073Z,8.50
2018-11-01T06:46:48.047Z,7.33
2018-11-01T06:49:17.542Z,7.33
2018-11-01T06:51:46.274Z,7.07
2018-11-01T06:54:14.941Z,6.87
2018-11-01T06:56:43.700Z,9.83
2018-11-01T06:59:12.748Z,8.57
2018-11-01T07:01:41.186Z,11.27
2018-11-01T07:04:09.797Z,11.33
2018-11-01T07:06:38.502Z,10.30
2018-11-01T07:09:09.377Z,9.77
2018-11-01T07:11:38.233Z,10.33
2018-11-01T07:14:08.330Z,9.87
2018-11-01T07:16:37.045Z,12.17
2018-11-01T07:19:05.858Z,10.87
2018-11-01T07:21:34.594Z,12.30
2018-11-01T07:24:03.371Z,15.10
2018-11-01T07:26:32.226Z,18.73
2018-11-01T07:29:00.569Z,13.13
2018-11-01T07:31:29.214Z,18.67
2018-11-01T07:33:57.919Z,14.47
2018-11-01T07:36:27.530Z,24.23
2018-11-01T07:38:56.228Z,20.43
2018-11-01T07:41:24.930Z,20.37
2018-11-01T07:43:53.623Z,22.60
2018-11-01T07:46:22.394Z,16.27
2018-11-01T07:48:51.102Z,14.17
2018-11-01T07:51:19.830Z,15.23
2018-11-01T07:53:48.534Z,13.27
2018-11-01T07:56:17.237Z,15.67
2018-11-01T07:58:45.928Z,20.07
2018-11-01T08:01:14.633Z,23.37
2018-11-01T08:03:43.387Z,18.57
2018-11-01T08:06:12.087Z,18.50
2018-11-01T08:08:40.810Z,19.60
2018-11-01T08:11:09.526Z,17.30
2018-11-01T08:13:38.230Z,20.63
2018-11-01T08:16:07.349Z,20.47
2018-11-01T08:18:36.046Z,16.27
2018-11-01T08:21:05.610Z,13.23
2018-11-01T08:23:34.166Z,7.37
2018-11-01T08:26:02.878Z,13.43
2018-11-01T08:28:31.566Z,5.83
2018-11-01T08:31:00.269Z,5.07
2018-11-01T08:33:28.979Z,3.63
2018-11-01T08:35:58.034Z,8.17
2018-11-01T08:38:26.931Z,9.67
2018-11-01T08:40:55.679Z,3.60
2018-11-01T08:43:24.378Z,4.63
2018-11-01T08:45:53.098Z,8.23
2018-11-01T08:48:21.790Z,5.43
2018-11-01T08:50:50.491Z,7.20
2018-11-01T08:53:19.298Z,2.03
2018-11-01T08:55:48.055Z,2.93
2018-11-01T08:58:16.777Z,3.57
2018-11-01T09:00:45.508Z,5.17
2018-11-01T09:03:14.259Z,4.03
2018-11-01T09:05:42.958Z,6.17
2018-11-01T09:08:11.760Z,3.30
2018-11-01T09:10:40.444Z,7.20
2018-11-01T09:13:09.143Z,9.20
2018-11-01T09:15:37.798Z,8.00
2018-11-01T09:18:06.689Z,6.50
2018-11-01T09:20:36.207Z,7.10
2018-11-01T09:23:04.954Z,5.47
2018-11-01T09:25:33.650Z,2.83
2018-11-01T09:28:02.410Z,2.93
2018-11-01T09:30:31.186Z,4.53
2018-11-01T09:32:59.898Z,2.63
2018-11-01T09:35:28.720Z,4.30
2018-11-01T09:37:57.372Z,3.17
2018-11-01T09:40:26.060Z,5.57
2018-11-01T09:42:54.758Z,2.50
2018-11-01T09:45:23.454Z,1.40
2018-11-01T09:47:52.393Z,4.10
2018-11-01T09:50:20.850Z,3.13
2018-11-01T09:52:49.546Z,2.45
2018-11-01T09:55:18.239Z,8.03
2018-11-01T09:57:46.942Z,2.27
2018-11-01T10:00:15.655Z,4.57
2018-11-01T10:02:44.396Z,2.60
2018-11-01T10:05:13.107Z,3.47
2018-11-01T10:07:41.828Z,1.30
2018-11-01T10:10:11.556Z,1.43
2018-11-01T10:12:40.385Z,2.20
2018-11-01T10:15:09.785Z,1.10
2018-11-01T10:17:38.845Z,8.77
2018-11-01T10:20:08.766Z,9.70
2018-11-01T10:22:37.564Z,40.00
2018-11-01T10:25:07.210Z,3.20
2018-11-01T10:27:36.151Z,5.70
2018-11-01T10:30:06.287Z,2.53
2018-11-01T10:32:35.003Z,7.10
2018-11-01T10:35:03.702Z,5.83
2018-11-01T10:37:32.406Z,0.87
2018-11-01T10:40:01.115Z,1.30
2018-11-01T10:42:29.798Z,3.97
2018-11-01T10:44:59.058Z,3.03
2018-11-01T10:47:27.836Z,6.20
2018-11-01T10:49:56.478Z,3.87
2018-11-01T10:52:25.191Z,1.73
2018-11-01T10:54:53.901Z,2.73
2018-11-01T10:57:22.806Z,4.63
2018-11-01T10:59:51.554Z,6.23
2018-11-01T11:02:25.497Z,5.60
2018-11-01T11:04:54.251Z,6.90
2018-11-01T11:07:23.086Z,4.63
2018-11-01T11:09:51.831Z,4.87
2018-11-01T11:12:20.579Z,6.43
2018-11-01T11:14:49.278Z,4.87
2018-11-01T11:17:17.982Z,6.07
2018-11-01T11:19:46.756Z,9.30
2018-11-01T11:22:15.423Z,8.90
2018-11-01T11:24:44.123Z,4.07
2018-11-01T11:27:12.894Z,7.87
2018-11-01T11:29:41.674Z,2.27
2018-11-01T11:32:10.382Z,1.37
2018-11-01T11:34:39.077Z,3.70
2018-11-01T11:37:07.766Z,2.57
2018-11-01T11:39:36.494Z,4.90
2018-11-01T11:42:05.430Z,3.47
2018-11-01T11:44:34.134Z,9.07
2018-11-01T11:47:02.830Z,6.07
2018-11-01T11:49:31.530Z,5.07
2018-11-01T11:52:00.234Z,3.30
2018-11-01T11:54:29.706Z,6.37
2018-11-01T11:56:58.458Z,4.30
2018-11-01T11:59:27.102Z,4.17
2018-11-01T12:01:55.898Z,4.27
2018-11-01T12:04:24.605Z,4.13
2018-11-01T12:06:53.293Z,4.70
2018-11-01T12:09:21.993Z,5.80
2018-11-01T12:11:50.686Z,3.77
2018-11-01T12:14:19.414Z,3.70
2018-11-01T12:16:48.105Z,2.87
2018-11-01T12:19:16.901Z,4.30
2018-11-01T12:21:45.602Z,8.23
2018-11-01T12:24:14.402Z,10.63
2018-11-01T12:26:43.098Z,6.27
2018-11-01T12:29:11.806Z,4.83
2018-11-01T12:31:40.514Z,5.13
2018-11-01T12:34:09.234Z,7.97
2018-11-01T12:36:37.923Z,9.60
2018-11-01T12:39:07.204Z,7.73
2018-11-01T12:41:36.036Z,4.87
2018-11-01T12:44:04.711Z,4.53
2018-11-01T12:46:33.398Z,7.80
2018-11-01T12:49:02.210Z,5.20
2018-11-01T12:51:30.950Z,9.27
2018-11-01T12:54:00.183Z,8.67
2018-11-01T12:56:29.100Z,4.87
2018-11-01T12:58:57.746Z,6.40
2018-11-01T13:01:26.647Z,4.70
2018-11-01T13:03:55.363Z,5.00
2018-11-01T13:06:24.070Z,4.57
2018-11-01T13:08:52.786Z,14.60
2018-11-01T13:11:21.494Z,19.13
2018-11-01T13:13:50.207Z,8.23
2018-11-01T13:16:18.905Z,7.70
2018-11-01T13:18:47.638Z,5.97
2018-11-01T13:21:16.434Z,9.27
2018-11-01T13:23:45.146Z,7.77
2018-11-01T13:26:13.838Z,5.23
2018-11-01T13:28:42.598Z,4.37
2018-11-01T13:31:11.341Z,4.27
2018-11-01T13:33:40.097Z,5.37
2018-11-01T13:36:08.834Z,5.17
2018-11-01T13:38:37.597Z,4.30
2018-11-01T13:41:07.007Z,5.07
2018-11-01T13:43:35.259Z,6.63
2018-11-01T13:46:03.954Z,15.20
2018-11-01T13:48:32.747Z,8.83
2018-11-01T13:51:01.386Z,6.23
2018-11-01T13:53:30.674Z,8.23
2018-11-01T13:55:59.419Z,7.03
2018-11-01T13:58:28.126Z,6.70
2018-11-01T14:00:56.834Z,8.10
2018-11-01T14:03:25.566Z,5.00
2018-11-01T14:05:54.343Z,7.57
2018-11-01T14:08:22.995Z,9.33
2018-11-01T14:10:51.690Z,12.23
2018-11-01T14:13:20.490Z,8.83
2018-11-01T14:15:49.111Z,5.93
2018-11-01T14:18:23.542Z,4.63
2018-11-01T14:20:52.238Z,8.20
2018-11-01T14:23:20.942Z,5.60
2018-11-01T14:25:49.646Z,3.30
2018-11-01T14:28:18.351Z,4.50
2018-11-01T14:30:47.055Z,9.37
2018-11-01T14:33:15.765Z,8.60
2018-11-01T14:35:44.482Z,11.60
2018-11-01T14:38:13.219Z,14.30
2018-11-01T14:40:41.926Z,12.27
2018-11-01T14:43:10.661Z,17.67
2018-11-01T14:45:39.362Z,10.80
2018-11-01T14:48:08.063Z,12.40
2018-11-01T14:50:36.791Z,5.10
2018-11-01T14:53:06.508Z,5.63
2018-11-01T14:55:35.661Z,6.60
2018-11-01T14:58:04.920Z,11.17
2018-11-01T15:00:32.013Z,5.33
2018-11-01T15:03:01.360Z,6.23
2018-11-01T15:05:30.046Z,4.33
2018-11-01T15:07:58.744Z,6.90
2018-11-01T15:10:27.478Z,7.23
2018-11-01T15:12:56.182Z,5.63
2018-11-01T15:15:24.879Z,7.53
2018-11-01T15:17:53.636Z,10.83
2018-11-01T15:20:22.282Z,6.47
2018-11-01T15:22:50.981Z,5.40
2018-11-01T15:25:19.678Z,7.83
2018-11-01T15:27:48.375Z,4.67
2018-11-01T15:30:17.285Z,6.50
2018-11-01T15:32:45.778Z,7.17
2018-11-01T15:35:14.474Z,5.80
2018-11-01T15:37:43.185Z,6.70
2018-11-01T15:40:12.712Z,5.00
2018-11-01T15:42:41.998Z,7.90
2018-11-01T15:45:11.516Z,6.23
2018-11-01T15:47:41.016Z,10.47
2018-11-01T15:50:10.737Z,7.87
2018-11-01T15:52:39.484Z,11.53
2018-11-01T15:55:08.649Z,8.77
2018-11-01T15:57:37.660Z,9.43
2018-11-01T16:00:08.483Z,4.93
2018-11-01T16:02:38.696Z,6.80
2018-11-01T16:05:07.455Z,10.40
2018-11-01T16:07:36.179Z,5.67
2018-11-01T16:10:06.062Z,7.33
2018-11-01T16:12:34.819Z,8.43
2018-11-01T16:15:03.643Z,13.00
2018-11-01T16:17:32.334Z,8.47
2018-11-01T16:20:02.175Z,7.47
2018-11-01T16:22:30.722Z,6.53
2018-11-01T16:24:59.427Z,6.17
2018-11-01T16:27:28.433Z,6.93
2018-11-01T16:29:57.147Z,15.03
2018-11-01T16:32:25.872Z,12.43
2018-11-01T16:34:54.559Z,14.93
2018-11-01T16:37:23.276Z,9.37
2018-11-01T16:39:51.962Z,8.40
2018-11-01T16:42:20.761Z,9.63
2018-11-01T16:44:49.585Z,12.23
2018-11-01T16:47:18.245Z,11.27
2018-11-01T16:49:46.951Z,9.00
2018-11-01T16:52:15.661Z,12.03
2018-11-01T16:54:44.373Z,14.13
2018-11-01T16:57:13.075Z,24.43
2018-11-01T16:59:41.834Z,7.67
2018-11-01T17:02:10.628Z,14.53
2018-11-01T17:04:39.554Z,13.93
2018-11-01T17:07:08.757Z,14.80
2018-11-01T17:09:37.466Z,9.27
2018-11-01T17:12:06.331Z,6.60
2018-11-01T17:14:35.046Z,10.07
2018-11-01T17:17:03.807Z,7.83
2018-11-01T17:19:32.546Z,8.17
2018-11-01T17:22:01.268Z,9.57
2018-11-01T17:24:29.933Z,11.87
2018-11-01T17:26:58.746Z,8.17
2018-11-01T17:29:27.494Z,13.47
2018-11-01T17:31:56.228Z,17.87
2018-11-01T17:34:24.941Z,9.30
2018-11-01T17:36:53.673Z,17.17
2018-11-01T17:39:22.368Z,11.77
2018-11-01T17:41:51.070Z,11.50
2018-11-01T17:44:19.780Z,19.73
2018-11-01T17:46:48.698Z,8.03
2018-11-01T17:49:17.424Z,16.60
2018-11-01T17:51:46.147Z,18.93
2018-11-01T17:54:16.426Z,19.70
2018-11-01T17:56:45.724Z,35.23
2018-11-01T17:59:14.614Z,49.13
2018-11-01T18:01:43.439Z,22.30
2018-11-01T18:04:12.130Z,6.27
2018-11-01T18:06:40.839Z,14.87
2018-11-01T18:09:12.121Z,17.60
2018-11-01T18:11:40.851Z,16.23
2018-11-01T18:14:09.683Z,10.17
2018-11-01T18:16:38.683Z,17.80
2018-11-01T18:19:07.382Z,23.30
2018-11-01T18:21:36.091Z,25.60
2018-11-01T18:24:05.550Z,36.03
2018-11-01T18:26:34.330Z,10.33
2018-11-01T18:29:03.320Z,14.47
2018-11-01T18:31:31.941Z,7.57
2018-11-01T18:34:00.591Z,12.33
2018-11-01T18:36:29.295Z,8.40
2018-11-01T18:38:57.986Z,8.23
2018-11-01T18:41:26.686Z,6.93
2018-11-01T18:43:55.478Z,6.67
2018-11-01T18:46:24.183Z,10.20
2018-11-01T18:48:52.950Z,10.83
2018-11-01T18:51:21.661Z,8.43
2018-11-01T18:53:50.362Z,9.47
2018-11-01T18:56:19.062Z,5.73
2018-11-01T18:58:47.750Z,8.33
2018-11-01T19:01:16.461Z,9.27
2018-11-01T19:03:45.183Z,10.97
2018-11-01T19:06:13.865Z,8.97
2018-11-01T19:08:42.563Z,10.83
2018-11-01T19:11:11.266Z,7.97
2018-11-01T19:13:40.042Z,9.60
2018-11-01T19:16:08.734Z,8.50
2018-11-01T19:18:37.382Z,10.20
2018-11-01T19:21:06.082Z,7.83
2018-11-01T19:23:34.794Z,7.87
2018-11-01T19:26:03.705Z,9.77
2018-11-01T19:28:32.382Z,5.80
2018-11-01T19:31:01.090Z,11.63
2018-11-01T19:33:29.778Z,6.63
2018-11-01T19:35:58.482Z,6.17
2018-11-01T19:38:27.187Z,7.10
2018-11-01T19:40:55.897Z,6.37
2018-11-01T19:43:24.585Z,5.87
2018-11-01T19:45:53.294Z,12.63
2018-11-01T19:48:22.093Z,11.50
2018-11-01T19:50:50.711Z,5.43
2018-11-01T19:53:19.402Z,6.57
2018-11-01T19:55:48.095Z,8.93
2018-11-01T19:58:16.803Z,10.40
2018-11-01T20:00:45.498Z,7.03
2018-11-01T20:03:14.203Z,10.27
2018-11-01T20:05:42.897Z,8.53
2018-11-01T20:08:11.734Z,8.53
2018-11-01T20:10:40.462Z,7.57
2018-11-01T20:13:09.005Z,5.03
2018-11-01T20:15:37.631Z,3.90
2018-11-01T20:18:06.327Z,5.97
2018-11-01T20:20:35.059Z,5.70
2018-11-01T20:23:03.735Z,6.53
2018-11-01T20:25:32.331Z,5.57
2018-11-01T20:28:00.930Z,7.30
2018-11-01T20:30:29.614Z,10.63
2018-11-01T20:32:58.414Z,4.90
2018-11-01T20:35:27.098Z,8.50
2018-11-01T20:37:55.697Z,6.23
2018-11-01T20:40:24.780Z,12.33
2018-11-01T20:42:53.487Z,11.30
2018-11-01T20:45:22.201Z,12.63
2018-11-01T20:47:50.893Z,7.83
2018-11-01T20:50:19.472Z,13.13
2018-11-01T20:52:48.014Z,7.00
2018-11-01T20:55:16.712Z,5.97
2018-11-01T20:57:45.477Z,7.47
2018-11-01T21:00:15.039Z,3.07
2018-11-01T21:02:43.775Z,6.23
2018-11-01T21:05:12.450Z,12.60
2018-11-01T21:07:40.891Z,5.63
2018-11-01T21:10:10.079Z,13.77
2018-11-01T21:12:39.182Z,9.40
2018-11-01T21:15:09.497Z,8.47
2018-11-01T21:17:39.178Z,5.90
2018-11-01T21:20:08.096Z,5.83
2018-11-01T21:22:36.803Z,8.23
2018-11-01T21:25:06.291Z,8.35
2018-11-01T21:27:35.041Z,7.47
2018-11-01T21:30:04.014Z,6.83
2018-11-01T21:32:32.728Z,10.40
2018-11-01T21:35:01.557Z,3.27
2018-11-01T21:37:30.079Z,5.97
2018-11-01T21:39:58.773Z,6.50
2018-11-01T21:42:27.473Z,3.67
2018-11-01T21:44:56.173Z,9.63
2018-11-01T21:47:25.074Z,3.87
2018-11-01T21:49:53.678Z,6.77
2018-11-01T21:52:22.640Z,4.70
2018-11-01T21:54:51.206Z,6.20
2018-11-01T21:57:19.819Z,4.20
2018-11-01T21:59:48.522Z,6.77
2018-11-01T22:02:17.218Z,3.77
2018-11-01T22:04:45.742Z,8.13
2018-11-01T22:07:14.351Z,7.50
2018-11-01T22:09:43.155Z,4.20
2018-11-01T22:12:11.550Z,6.27
2018-11-01T22:14:39.974Z,5.70
2018-11-01T22:17:08.591Z,3.47
2018-11-01T22:19:37.294Z,8.20
2018-11-01T22:22:05.822Z,3.07
2018-11-01T22:24:34.234Z,6.90
2018-11-01T22:27:02.831Z,3.33
2018-11-01T22:29:31.534Z,4.50
2018-11-01T22:32:00.153Z,1.83
2018-11-01T22:34:28.770Z,6.07
2018-11-01T22:36:57.467Z,4.33
2018-11-01T22:39:26.107Z,4.73
2018-11-01T22:41:54.702Z,4.53
2018-11-01T22:44:23.402Z,3.63
2018-11-01T22:46:52.134Z,1.93
2018-11-01T22:49:20.638Z,3.40
2018-11-01T22:51:49.258Z,5.43
2018-11-01T22:54:17.798Z,2.77
2018-11-01T22:56:46.558Z,8.87
2018-11-01T22:59:15.262Z,3.17
2018-11-01T23:01:43.950Z,3.63
2018-11-01T23:04:12.646Z,3.37
2018-11-01T23:06:41.129Z,5.67
2018-11-01T23:09:10.533Z,3.00
2018-11-01T23:11:39.841Z,3.60
2018-11-01T23:14:08.478Z,2.43
2018-11-01T23:16:37.321Z,2.23
2018-11-01T23:19:05.987Z,5.10
2018-11-01T23:21:34.674Z,3.00
2018-11-01T23:24:03.170Z,8.33
2018-11-01T23:26:31.599Z,2.83
2018-11-01T23:29:00.200Z,2.10
2018-11-01T23:31:28.883Z,2.20
2018-11-01T23:33:57.477Z,2.27
2018-11-01T23:36:25.765Z,3.27
2018-11-01T23:38:59.733Z,9.13
2018-11-01T23:41:33.814Z,3.20
2018-11-01T23:44:07.958Z,1.53
2018-11-01T23:46:41.935Z,2.73
2018-11-01T23:49:13.142Z,4.03
2018-11-01T23:51:42.178Z,1.67
2018-11-01T23:54:10.794Z,1.50
2018-11-01T23:56:40.166Z,2.83
2018-11-01T23:59:08.690Z,2.20
